Time;durP1;ratioP1;P1;durP2;ratioP2;P2;SDS_P1;SDS_P2;PMS_P1;PMS_P2;Temp;Humidity;BMP_temperature;BMP_pressure;BME280_temperature;BME280_humidity;BME280_pressure;Samples;Min_cycle;Max_cycle;Signal;HPM_P1;HPM_P2
2022/06/21 00:02:08;;;;;;;19.10;5.30;;;11.00;93.70;;;;;;5050373;28;20047;-85
2022/06/21 00:04:36;;;;;;;16.15;4.70;;;10.90;93.60;;;;;;5049601;28;20658;-85
2022/06/21 00:07:04;;;;;;;18.58;5.18;;;10.90;93.90;;;;;;5048000;28;20132;-85
2022/06/21 00:09:32;;;;;;;14.00;4.82;;;10.90;94.10;;;;;;5047738;28;20480;-85
2022/06/21 00:11:58;;;;;;;12.52;5.25;;;10.90;94.00;;;;;;5048180;28;20021;-85
2022/06/21 00:14:26;;;;;;;13.95;4.75;;;10.90;94.00;;;;;;5066641;28;20051;-85
2022/06/21 00:16:54;;;;;;;20.05;5.20;;;10.80;93.90;;;;;;5049604;28;20111;-85
2022/06/21 00:19:24;;;;;;;9.68;5.10;;;10.80;94.00;;;;;;5061586;28;20142;-85
2022/06/21 00:21:50;;;;;;;17.05;5.53;;;10.80;94.00;;;;;;5047605;28;20017;-85
2022/06/21 00:24:16;;;;;;;19.20;5.88;;;10.80;94.10;;;;;;5064939;28;20031;-84
2022/06/21 00:26:43;;;;;;;13.77;5.68;;;10.70;94.30;;;;;;5067007;28;20090;-85
2022/06/21 00:29:10;;;;;;;13.55;5.53;;;10.70;94.30;;;;;;5065640;28;20016;-85
2022/06/21 00:31:37;;;;;;;15.68;5.75;;;10.80;94.40;;;;;;5050638;28;20024;-85
2022/06/21 00:34:21;;;;;;;13.85;5.25;;;10.70;94.40;;;;;;5043657;28;20026;-85
2022/06/21 00:36:48;;;;;;;15.35;5.78;;;10.60;94.40;;;;;;5050167;28;20032;-85
2022/06/21 00:39:28;;;;;;;22.92;5.85;;;10.60;94.50;;;;;;5050843;28;20032;-84
2022/06/21 00:42:04;;;;;;;19.17;5.90;;;10.50;94.70;;;;;;5055757;28;20162;-85
2022/06/21 00:44:36;;;;;;;15.02;5.60;;;10.50;94.70;;;;;;5052886;28;20052;-85
2022/06/21 00:47:37;;;;;;;15.35;5.55;;;10.40;94.80;;;;;;5051337;28;20405;-85
2022/06/21 00:50:16;;;;;;;11.33;5.07;;;10.30;94.90;;;;;;5024965;28;20052;-86
2022/06/21 00:53:14;;;;;;;11.98;5.57;;;10.20;95.00;;;;;;5049827;28;20031;-85
2022/06/21 00:55:52;;;;;;;17.05;5.20;;;10.10;94.90;;;;;;5051421;28;20028;-86
2022/06/21 00:58:23;;;;;;;18.10;5.68;;;10.10;95.00;;;;;;5047477;28;20029;-85
2022/06/21 01:01:01;;;;;;;13.60;4.93;;;10.00;95.10;;;;;;5051307;28;20101;-85
2022/06/21 01:03:40;;;;;;;18.10;6.07;;;10.00;95.30;;;;;;5062400;28;20033;-85
2022/06/21 01:06:33;;;;;;;20.70;6.13;;;10.00;95.50;;;;;;5069795;28;20115;-85
2022/06/21 01:09:04;;;;;;;14.93;5.95;;;10.10;95.60;;;;;;5059939;28;20127;-85
2022/06/21 01:11:40;;;;;;;14.38;6.03;;;10.10;95.70;;;;;;5053859;28;20029;-85
2022/06/21 01:14:08;;;;;;;20.63;6.45;;;10.10;95.60;;;;;;5051149;28;20035;-85
2022/06/21 01:16:35;;;;;;;16.15;6.38;;;10.00;95.80;;;;;;5059091;28;20031;-85
2022/06/21 01:19:02;;;;;;;16.77;6.30;;;10.00;95.70;;;;;;5051021;28;20021;-85
2022/06/21 01:21:30;;;;;;;14.98;5.93;;;10.00;95.80;;;;;;5047020;28;20040;-86
2022/06/21 01:24:14;;;;;;;14.95;6.30;;;10.00;95.70;;;;;;5043396;28;20028;-86
2022/06/21 01:26:47;;;;;;;21.70;6.35;;;10.00;95.90;;;;;;5069237;28;20031;-86
2022/06/21 01:29:18;;;;;;;15.63;5.57;;;9.90;95.80;;;;;;5052060;28;20025;-85
2022/06/21 01:31:45;;;;;;;17.80;6.82;;;9.80;95.90;;;;;;5072613;28;20459;-86
2022/06/21 01:34:20;;;;;;;19.90;6.75;;;9.80;96.00;;;;;;5053302;28;20039;-86
2022/06/21 01:36:50;;;;;;;18.98;6.72;;;9.80;96.00;;;;;;5069309;28;20103;-86
2022/06/21 01:39:22;;;;;;;21.02;6.90;;;9.80;96.00;;;;;;5058338;28;20318;-86
2022/06/21 01:41:54;;;;;;;18.17;6.82;;;9.70;96.10;;;;;;5071125;28;20088;-86
2022/06/21 01:44:37;;;;;;;20.33;7.10;;;9.70;96.10;;;;;;5067478;28;20052;-86
2022/06/21 01:47:08;;;;;;;21.73;6.95;;;9.60;96.10;;;;;;5060832;28;20069;-86
2022/06/21 01:49:38;;;;;;;;;;;9.60;96.10;;;;;;5068913;28;20021;-86
2022/06/21 01:52:12;;;;;;;19.02;6.18;;;9.50;96.20;;;;;;5065746;28;19932;-86
2022/06/21 01:54:44;;;;;;;18.60;6.55;;;9.50;96.20;;;;;;5061485;28;20178;-86
2022/06/21 01:57:13;;;;;;;22.20;6.53;;;9.50;96.30;;;;;;5051103;28;20123;-86
2022/06/21 01:59:47;;;;;;;24.52;6.88;;;9.40;96.30;;;;;;5051049;28;20043;-86
2022/06/21 02:02:24;;;;;;;26.60;7.45;;;9.40;96.40;;;;;;5068650;28;20507;-86
2022/06/21 02:05:07;;;;;;;20.00;7.18;;;9.30;96.40;;;;;;5053975;28;20028;-87
2022/06/21 02:07:38;;;;;;;20.40;7.35;;;9.30;96.40;;;;;;5044293;28;20150;-86
2022/06/21 02:10:14;;;;;;;;;;;9.30;96.50;;;;;;5050070;28;20115;-86
2022/06/21 02:12:45;;;;;;;21.80;6.82;;;9.30;96.50;;;;;;5048353;28;20045;-86
2022/06/21 02:15:24;;;;;;;22.10;6.53;;;9.20;96.60;;;;;;5050026;28;20124;-86
2022/06/21 02:18:02;;;;;;;17.77;7.10;;;9.30;96.70;;;;;;5050957;28;20040;-86
2022/06/21 02:20:49;;;;;;;14.95;7.05;;;9.20;96.70;;;;;;5065567;28;20222;-86
2022/06/21 02:23:22;;;;;;;20.65;7.68;;;9.10;96.70;;;;;;5066634;28;20021;-86
2022/06/21 02:25:48;;;;;;;18.27;7.30;;;9.10;96.80;;;;;;5051124;28;20048;-86
2022/06/21 02:28:15;;;;;;;16.25;8.00;;;9.10;96.90;;;;;;5051598;28;20040;-86
2022/06/21 02:30:43;;;;;;;22.52;7.85;;;9.10;96.90;;;;;;5067327;28;20121;-86
2022/06/21 02:33:15;;;;;;;27.48;8.52;;;9.10;96.90;;;;;;5050691;28;20112;-86
2022/06/21 02:35:49;;;;;;;24.83;8.02;;;9.10;96.90;;;;;;5050722;28;20502;-86
2022/06/21 02:38:23;;;;;;;21.55;8.00;;;9.00;97.00;;;;;;5055306;28;20032;-86
2022/06/21 02:40:59;;;;;;;21.65;8.70;;;9.10;97.10;;;;;;5079425;28;20028;-86
2022/06/21 02:43:34;;;;;;;17.58;8.15;;;9.00;97.10;;;;;;5050733;28;20060;-86
2022/06/21 02:46:15;;;;;;;20.95;8.07;;;9.00;97.10;;;;;;5049930;28;20028;-86
2022/06/21 02:48:52;;;;;;;25.58;8.40;;;9.00;97.10;;;;;;5049647;28;20036;-86
2022/06/21 02:51:25;;;;;;;20.55;8.30;;;9.00;97.10;;;;;;5039136;28;20028;-86
2022/06/21 02:54:04;;;;;;;22.83;8.18;;;8.90;97.00;;;;;;5062723;28;20032;-86
2022/06/21 02:56:53;;;;;;;23.98;7.90;;;8.80;97.00;;;;;;5054479;28;20024;-86
2022/06/21 02:59:19;;;;;;;26.77;8.55;;;8.80;97.10;;;;;;5049433;28;20156;-86
2022/06/21 03:01:50;;;;;;;20.08;8.50;;;8.80;97.10;;;;;;5049321;28;20129;-86
2022/06/21 03:04:21;;;;;;;29.92;9.63;;;8.80;97.10;;;;;;5050388;28;20509;-86
2022/06/21 03:06:49;;;;;;;23.40;8.55;;;8.80;97.20;;;;;;5048491;28;20043;-86
2022/06/21 03:09:17;;;;;;;25.40;9.27;;;8.80;97.20;;;;;;5064194;28;20385;-86
2022/06/21 03:11:47;;;;;;;26.60;9.35;;;8.90;97.30;;;;;;5037199;28;20120;-86
2022/06/21 03:14:17;;;;;;;25.48;9.95;;;8.80;97.00;;;;;;5051309;28;20492;-86
2022/06/21 03:16:45;;;;;;;25.10;10.15;;;8.80;97.10;;;;;;5047708;28;20138;-86
2022/06/21 03:19:23;;;;;;;27.35;11.13;;;8.70;97.00;;;;;;5049708;28;20028;-86
2022/06/21 03:21:49;;;;;;;26.65;9.45;;;8.70;97.20;;;;;;5048370;28;20486;-86
2022/06/21 03:24:19;;;;;;;22.88;10.02;;;8.60;97.00;;;;;;5049794;28;20039;-86
2022/06/21 03:27:05;;;;;;;26.75;10.13;;;8.60;97.00;;;;;;5049640;28;20041;-86
2022/06/21 03:29:31;;;;;;;33.28;10.60;;;8.60;97.10;;;;;;5068168;28;20033;-86
2022/06/21 03:31:59;;;;;;;29.67;10.90;;;8.60;97.20;;;;;;5048179;28;20444;-86
2022/06/21 03:34:26;;;;;;;26.88;11.48;;;8.70;97.10;;;;;;5051024;28;20543;-86
2022/06/21 03:36:52;;;;;;;26.63;10.88;;;8.60;97.00;;;;;;5052830;28;20046;-86
2022/06/21 03:41:42;;;;;;;28.77;11.10;;;8.70;97.10;;;;;;5065356;28;20029;-86
2022/06/21 03:42:08;;;;;;;24.65;9.95;;;8.70;97.00;;;;;;5067828;28;20218;-86
2022/06/21 03:44:41;;;;;;;23.75;11.23;;;8.70;97.10;;;;;;5066410;28;20032;-85
2022/06/21 03:47:16;;;;;;;23.58;10.40;;;8.80;97.20;;;;;;5049353;28;20035;-85
2022/06/21 03:49:53;;;;;;;26.15;11.32;;;8.70;97.20;;;;;;5049875;28;20112;-86
2022/06/21 03:55:37;;;;;;;24.00;10.40;;;8.80;97.30;;;;;;5067422;28;20051;-86
2022/06/21 03:58:29;;;;;;;30.23;11.20;;;8.90;97.40;;;;;;5064670;28;20455;-86
2022/06/21 04:01:23;;;;;;;29.70;10.85;;;9.00;97.40;;;;;;5047736;28;20028;-86
2022/06/21 04:04:07;;;;;;;24.35;11.05;;;9.00;97.40;;;;;;5057398;28;20102;-86
2022/06/21 04:06:55;;;;;;;24.40;11.68;;;9.10;97.40;;;;;;5072467;28;20036;-86
2022/06/21 04:09:46;;;;;;;34.20;10.68;;;9.10;97.30;;;;;;5066729;28;20359;-86
2022/06/21 04:12:22;;;;;;;24.80;10.77;;;9.00;97.30;;;;;;5051786;28;20515;-86
2022/06/21 04:14:56;;;;;;;26.30;11.23;;;9.00;97.20;;;;;;5049287;28;20101;-85
2022/06/21 04:17:43;;;;;;;25.67;10.95;;;9.00;97.30;;;;;;5048870;28;20105;-85
2022/06/21 04:20:29;;;;;;;28.80;11.20;;;9.10;97.30;;;;;;5058760;28;20058;-85
2022/06/21 04:23:01;;;;;;;28.23;12.35;;;9.20;97.30;;;;;;5049095;28;20057;-83
2022/06/21 04:25:55;;;;;;;26.58;10.75;;;9.30;97.40;;;;;;5023582;28;20025;-83
2022/06/21 04:28:29;;;;;;;25.38;11.23;;;9.40;97.40;;;;;;5045507;28;20033;-82
2022/06/21 04:31:07;;;;;;;23.23;11.13;;;9.40;97.40;;;;;;5058844;28;20526;-81
2022/06/21 04:33:38;;;;;;;28.95;12.13;;;9.50;97.40;;;;;;5060296;28;20028;-80
2022/06/21 04:36:16;;;;;;;25.60;11.65;;;9.50;97.30;;;;;;5031342;28;20024;-80
2022/06/21 04:38:52;;;;;;;27.13;11.13;;;9.60;97.40;;;;;;5044184;28;20028;-82
2022/06/21 04:41:22;;;;;;;30.85;11.93;;;9.70;97.50;;;;;;5032208;28;20025;-82
2022/06/21 04:44:14;;;;;;;23.60;10.95;;;9.80;97.40;;;;;;5035324;28;20066;-82
2022/06/21 04:46:50;;;;;;;30.40;11.10;;;9.90;97.40;;;;;;5021916;28;20029;-83
2022/06/21 04:49:23;;;;;;;27.73;10.93;;;10.10;97.30;;;;;;5033779;28;20365;-82
2022/06/21 04:51:54;;;;;;;26.73;11.55;;;10.10;97.30;;;;;;5044267;28;20018;-82
2022/06/21 04:54:26;;;;;;;25.67;11.70;;;10.30;97.10;;;;;;5045040;28;20187;-82
2022/06/21 04:57:01;;;;;;;26.63;10.73;;;10.30;96.90;;;;;;5033338;28;20055;-81
2022/06/21 04:59:31;;;;;;;34.13;10.57;;;10.40;96.80;;;;;;5033041;28;20032;-83
2022/06/21 05:01:57;;;;;;;34.90;10.73;;;10.50;96.60;;;;;;5033032;28;20017;-82
2022/06/21 05:04:27;;;;;;;26.30;9.40;;;10.60;96.50;;;;;;5053348;28;20433;-82
2022/06/21 05:06:54;;;;;;;22.23;9.45;;;10.60;96.30;;;;;;5029320;28;20026;-82
2022/06/21 05:09:22;;;;;;;23.45;8.57;;;10.70;96.20;;;;;;5046423;28;20099;-81
2022/06/21 05:12:05;;;;;;;25.88;8.77;;;10.80;96.10;;;;;;5041526;28;20024;-82
2022/06/21 05:14:36;;;;;;;24.48;8.68;;;10.90;95.80;;;;;;5064841;28;20036;-82
2022/06/21 05:17:09;;;;;;;21.17;8.00;;;11.00;95.80;;;;;;5074918;28;20078;-81
2022/06/21 05:19:39;;;;;;;20.73;7.78;;;11.10;95.70;;;;;;5053966;28;20024;-82
2022/06/21 05:22:27;;;;;;;22.00;7.25;;;11.20;95.40;;;;;;5062148;28;20051;-82
2022/06/21 05:24:54;;;;;;;24.50;6.55;;;11.20;95.20;;;;;;5054643;28;20104;-81
2022/06/21 05:27:41;;;;;;;21.33;5.93;;;11.30;95.00;;;;;;5057864;28;20043;-81
2022/06/21 05:30:26;;;;;;;15.85;6.50;;;11.50;94.60;;;;;;5055392;28;20024;-82
2022/06/21 05:32:55;;;;;;;17.95;5.97;;;11.50;94.30;;;;;;5054258;28;20039;-82
2022/06/21 05:35:25;;;;;;;13.45;5.40;;;11.50;94.10;;;;;;5053559;28;20035;-82
2022/06/21 05:37:58;;;;;;;16.05;4.90;;;11.60;93.90;;;;;;5051346;28;20086;-81
2022/06/21 05:40:56;;;;;;;14.18;4.88;;;11.80;93.70;;;;;;5070294;28;20502;-82
2022/06/21 05:43:45;;;;;;;14.75;4.53;;;11.90;93.40;;;;;;5053478;28;20055;-82
2022/06/21 05:46:21;;;;;;;13.43;3.90;;;12.00;93.30;;;;;;5076302;28;20041;-82
2022/06/21 05:48:47;;;;;;;22.08;4.50;;;12.10;92.80;;;;;;5058235;28;20029;-83
2022/06/21 05:51:32;;;;;;;12.95;4.05;;;12.20;92.20;;;;;;5051013;28;20517;-81
2022/06/21 05:54:06;;;;;;;10.93;3.58;;;12.20;92.00;;;;;;5049671;28;20199;-81
2022/06/21 05:56:34;;;;;;;14.27;4.20;;;12.50;91.90;;;;;;5073347;28;20060;-80
2022/06/21 05:59:07;;;;;;;12.10;4.45;;;12.70;91.50;;;;;;5073148;28;20036;-82
2022/06/21 06:01:55;;;;;;;13.73;3.72;;;12.70;90.90;;;;;;5073143;28;20084;-81
2022/06/21 06:04:31;;;;;;;14.10;3.97;;;12.80;90.80;;;;;;5062022;28;20040;-81
2022/06/21 06:06:58;;;;;;;19.33;3.67;;;13.10;90.90;;;;;;5056957;28;20090;-81
2022/06/21 06:09:49;;;;;;;9.68;3.53;;;13.20;89.80;;;;;;5054529;28;20029;-81
2022/06/21 06:12:20;;;;;;;;;;;13.30;89.30;;;;;;5074383;28;20529;-81
2022/06/21 06:14:54;;;;;;;9.90;3.73;;;13.40;89.10;;;;;;5059212;28;19977;-80
2022/06/21 06:17:43;;;;;;;12.43;3.33;;;13.60;89.20;;;;;;5057355;28;20119;-81
2022/06/21 06:20:22;;;;;;;11.45;3.13;;;13.70;88.50;;;;;;5078716;28;20121;-81
2022/06/21 06:23:02;;;;;;;9.60;3.10;;;13.80;88.20;;;;;;5055819;28;20511;-81
2022/06/21 06:25:35;;;;;;;10.83;2.93;;;13.90;87.60;;;;;;5058248;28;20501;-81
2022/06/21 06:28:10;;;;;;;13.40;3.00;;;14.00;87.60;;;;;;5074655;28;20100;-81
2022/06/21 06:30:42;;;;;;;9.65;2.67;;;14.10;87.10;;;;;;5064180;28;20092;-81
2022/06/21 06:33:32;;;;;;;12.35;2.80;;;14.10;86.40;;;;;;5059416;28;20104;-81
2022/06/21 06:36:01;;;;;;;8.00;2.72;;;14.30;85.90;;;;;;5075223;28;20059;-81
2022/06/21 06:38:28;;;;;;;10.32;3.00;;;14.30;85.40;;;;;;5055270;28;20032;-81
2022/06/21 06:41:23;;;;;;;7.10;2.30;;;14.30;85.50;;;;;;5060822;28;20036;-81
2022/06/21 06:43:55;;;;;;;8.18;2.53;;;14.30;85.10;;;;;;5033408;28;20480;-81
2022/06/21 06:46:37;;;;;;;17.58;2.97;;;14.60;85.60;;;;;;5061140;28;20224;-80
2022/06/21 06:49:23;;;;;;;9.52;2.75;;;14.70;83.80;;;;;;5078167;28;20049;-81
2022/06/21 06:52:08;;;;;;;12.38;2.58;;;14.80;84.40;;;;;;5071714;28;20453;-81
2022/06/21 06:54:57;;;;;;;10.15;2.95;;;15.00;83.50;;;;;;5066370;28;20024;-81
2022/06/21 06:57:43;;;;;;;13.00;2.70;;;15.20;83.10;;;;;;5058086;28;20533;-81
2022/06/21 07:00:19;;;;;;;8.05;2.42;;;15.40;82.60;;;;;;5073638;28;20100;-81
2022/06/21 07:02:51;;;;;;;14.40;2.75;;;15.40;81.60;;;;;;5057259;28;20028;-81
2022/06/21 07:05:48;;;;;;;7.90;2.78;;;15.60;81.50;;;;;;5064624;28;20029;-81
2022/06/21 07:08:41;;;;;;;10.68;2.28;;;15.60;80.70;;;;;;5070182;28;20519;-81
2022/06/21 07:11:16;;;;;;;8.68;2.50;;;15.40;81.60;;;;;;5072458;28;20048;-81
2022/06/21 07:13:42;;;;;;;9.50;2.40;;;15.60;81.40;;;;;;5064166;28;20048;-82
2022/06/21 07:16:14;;;;;;;8.13;2.45;;;16.00;81.00;;;;;;5050744;28;20028;-81
2022/06/21 07:18:46;;;;;;;10.57;2.38;;;16.20;79.80;;;;;;5073356;28;20476;-80
2022/06/21 07:21:12;;;;;;;8.85;2.50;;;16.30;78.20;;;;;;5054889;28;20103;-81
2022/06/21 07:23:38;;;;;;;9.45;2.30;;;16.40;76.80;;;;;;5053442;28;20512;-82
2022/06/21 07:26:23;;;;;;;6.95;2.05;;;16.50;77.40;;;;;;5055844;28;20024;-81
2022/06/21 07:28:59;;;;;;;7.82;2.35;;;16.40;77.90;;;;;;5057697;28;20036;-81
2022/06/21 07:31:28;;;;;;;7.03;2.05;;;16.50;77.20;;;;;;5055236;28;20020;-82
2022/06/21 07:34:06;;;;;;;9.10;2.10;;;16.80;77.10;;;;;;5070733;28;20032;-81
2022/06/21 07:36:38;;;;;;;8.38;2.00;;;17.00;76.20;;;;;;5073999;28;20012;-81
2022/06/21 07:39:09;;;;;;;11.30;2.25;;;16.70;75.60;;;;;;5052567;28;20111;-81
2022/06/21 07:41:38;;;;;;;;;;;17.00;74.80;;;;;;5071796;28;20051;-82
2022/06/21 07:44:15;;;;;;;7.22;1.88;;;17.30;76.30;;;;;;5051092;28;19954;-83
2022/06/21 07:46:46;;;;;;;9.32;2.20;;;17.40;73.00;;;;;;5077468;28;20443;-82
2022/06/21 07:49:25;;;;;;;10.00;2.10;;;17.30;74.00;;;;;;5070672;28;20036;-82
2022/06/21 07:51:55;;;;;;;11.43;1.98;;;17.30;74.20;;;;;;5062483;28;20668;-82
2022/06/21 07:54:38;;;;;;;10.10;2.20;;;17.50;72.10;;;;;;5058466;28;20500;-81
2022/06/21 07:57:18;;;;;;;5.47;1.77;;;17.80;72.10;;;;;;5068162;28;20681;-82
2022/06/21 07:59:50;;;;;;;11.15;1.98;;;18.00;73.00;;;;;;5069819;28;20028;-80
2022/06/21 08:08:14;;;;;;;4.28;1.52;;;17.40;73.70;;;;;;5063278;28;20123;-81
2022/06/21 08:10:52;;;;;;;11.57;2.30;;;17.60;72.10;;;;;;5076366;28;20069;-80
2022/06/21 08:13:17;;;;;;;8.88;1.85;;;17.60;72.00;;;;;;5045958;28;20044;-81
2022/06/21 08:15:50;;;;;;;5.18;1.50;;;18.40;72.90;;;;;;5076963;28;20024;-81
2022/06/21 08:18:45;;;;;;;5.28;1.63;;;18.40;70.70;;;;;;5056594;28;20051;-81
2022/06/21 08:21:19;;;;;;;5.35;1.95;;;18.00;69.60;;;;;;5067420;28;20154;-81
2022/06/21 08:23:56;;;;;;;5.60;1.70;;;18.20;69.30;;;;;;5060485;28;20032;-81
2022/06/21 08:26:50;;;;;;;12.52;2.05;;;18.50;69.20;;;;;;5058583;28;20123;-80
2022/06/21 08:29:22;;;;;;;6.32;2.08;;;18.70;67.90;;;;;;5052464;28;20040;-81
2022/06/21 08:32:00;;;;;;;5.18;1.48;;;19.00;67.40;;;;;;5077092;28;20032;-81
2022/06/21 08:34:50;;;;;;;8.23;1.77;;;18.10;68.20;;;;;;5055677;28;20021;-81
2022/06/21 08:37:36;;;;;;;4.22;1.42;;;17.80;69.20;;;;;;5058199;28;20025;-81
2022/06/21 08:40:14;;;;;;;5.75;1.38;;;18.00;68.30;;;;;;5072231;28;20032;-81
2022/06/21 08:43:38;;;;;;;7.63;1.85;;;17.60;68.60;;;;;;5071888;28;20029;-81
2022/06/21 08:46:27;;;;;;;8.10;1.38;;;18.30;68.00;;;;;;4953698;28;20094;-81
2022/06/21 08:49:14;;;;;;;5.15;1.60;;;18.00;67.90;;;;;;4974960;28;20046;-81
2022/06/21 08:51:50;;;;;;;5.65;1.55;;;18.30;69.60;;;;;;5069679;28;20029;-80
2022/06/21 08:54:26;;;;;;;8.73;1.77;;;18.90;66.30;;;;;;5056266;28;20044;-80
2022/06/21 08:57:30;;;;;;;5.53;1.67;;;19.00;64.90;;;;;;5060466;28;20043;-80
2022/06/21 09:00:14;;;;;;;9.18;1.70;;;19.50;64.00;;;;;;5055145;28;20464;-82
2022/06/21 09:03:04;;;;;;;5.03;1.48;;;18.90;65.10;;;;;;5058466;28;20035;-82
2022/06/21 09:05:55;;;;;;;7.95;1.83;;;18.30;66.50;;;;;;5059405;28;20028;-82
2022/06/21 09:08:36;;;;;;;6.97;1.50;;;18.90;65.50;;;;;;5055188;28;20032;-81
2022/06/21 09:11:10;;;;;;;6.00;1.55;;;19.10;63.60;;;;;;5052866;28;20063;-82
2022/06/21 09:14:04;;;;;;;4.90;1.67;;;19.20;63.60;;;;;;5060306;28;20515;-82
2022/06/21 09:16:51;;;;;;;4.95;1.17;;;19.30;63.60;;;;;;5075316;28;20978;-82
2022/06/21 09:19:47;;;;;;;7.47;1.38;;;19.20;61.80;;;;;;5062688;28;20035;-82
2022/06/21 09:22:30;;;;;;;5.00;1.33;;;19.70;61.60;;;;;;5041086;28;20045;-82
2022/06/21 09:25:11;;;;;;;7.57;1.45;;;20.20;59.80;;;;;;5055063;28;20091;-81
2022/06/21 09:27:43;;;;;;;8.23;1.50;;;20.40;58.30;;;;;;5056547;28;20083;-82
2022/06/21 09:30:17;;;;;;;4.82;1.30;;;20.50;59.70;;;;;;5077535;28;20025;-82
2022/06/21 09:32:54;;;;;;;5.30;1.52;;;20.10;59.60;;;;;;5058644;28;20482;-82
2022/06/21 09:35:39;;;;;;;4.57;1.30;;;19.60;61.30;;;;;;5057810;28;20017;-82
2022/06/21 09:38:26;;;;;;;6.03;1.50;;;20.00;60.00;;;;;;5055503;28;20024;-82
2022/06/21 09:41:17;;;;;;;5.60;1.63;;;19.90;59.00;;;;;;5067960;28;20079;-82
2022/06/21 09:43:47;;;;;;;6.65;1.33;;;20.40;58.20;;;;;;5053197;28;20153;-82
2022/06/21 09:46:34;;;;;;;5.13;1.40;;;20.80;57.30;;;;;;5052555;28;20105;-82
2022/06/21 09:49:26;;;;;;;4.93;1.20;;;20.70;58.30;;;;;;5049217;28;20046;-83
2022/06/21 09:52:04;;;;;;;5.97;1.13;;;20.90;57.10;;;;;;5054589;28;20036;-82
2022/06/21 09:54:41;;;;;;;7.28;1.50;;;21.30;55.60;;;;;;5054454;28;20121;-82
2022/06/21 09:57:12;;;;;;;3.42;1.08;;;21.10;55.90;;;;;;5070755;28;20024;-82
2022/06/21 09:59:47;;;;;;;6.07;1.35;;;20.90;54.90;;;;;;5054435;28;20119;-82
2022/06/21 10:02:34;;;;;;;6.30;1.55;;;20.30;56.50;;;;;;5072649;28;20025;-82
2022/06/21 10:05:16;;;;;;;6.68;1.42;;;20.30;56.80;;;;;;5044686;28;20031;-82
2022/06/21 10:08:04;;;;;;;7.80;1.63;;;20.90;54.20;;;;;;5072867;28;20029;-82
2022/06/21 10:10:58;;;;;;;7.70;1.38;;;20.60;54.60;;;;;;5053163;28;20429;-83
2022/06/21 10:13:43;;;;;;;4.70;1.38;;;21.00;53.30;;;;;;5051512;28;20047;-82
2022/06/21 10:16:30;;;;;;;2.75;1.15;;;21.70;53.00;;;;;;5072749;28;20066;-82
2022/06/21 10:19:14;;;;;;;6.05;1.13;;;21.20;53.50;;;;;;5056089;28;20554;-83
2022/06/21 10:21:58;;;;;;;4.88;1.05;;;22.10;52.30;;;;;;5069754;28;20090;-83
2022/06/21 10:24:38;;;;;;;6.10;1.30;;;22.40;53.30;;;;;;5069603;28;20378;-83
2022/06/21 10:27:14;;;;;;;4.20;1.20;;;22.60;52.20;;;;;;5071634;28;20036;-82
2022/06/21 10:30:14;;;;;;;5.72;1.40;;;23.00;53.50;;;;;;5045831;28;20033;-82
2022/06/21 10:33:08;;;;;;;4.63;1.25;;;22.10;49.40;;;;;;5059862;28;20035;-83
2022/06/21 10:35:56;;;;;;;4.00;1.00;;;22.00;49.60;;;;;;5050488;28;20032;-82
2022/06/21 10:38:36;;;;;;;5.70;1.05;;;22.40;49.40;;;;;;5070009;28;20043;-83
2022/06/21 10:41:34;;;;;;;5.43;1.23;;;22.50;50.50;;;;;;5071780;28;20028;-83
2022/06/21 10:44:27;;;;;;;5.70;1.17;;;22.50;50.60;;;;;;5054052;28;20043;-82
2022/06/21 10:47:01;;;;;;;5.78;1.42;;;22.00;49.40;;;;;;5050021;28;20036;-82
2022/06/21 10:49:35;;;;;;;2.85;0.90;;;21.60;51.50;;;;;;5071418;28;20032;-83
2022/06/21 10:52:33;;;;;;;4.80;1.35;;;22.00;50.80;;;;;;5069773;28;20036;-83
2022/06/21 10:55:08;;;;;;;3.80;1.08;;;22.70;48.70;;;;;;5043170;28;20514;-83
2022/06/21 10:57:58;;;;;;;2.80;0.98;;;23.00;47.90;;;;;;5044370;28;20024;-83
2022/06/21 11:03:59;;;;;;;3.53;0.95;;;22.90;46.90;;;;;;5061289;28;20059;-83
2022/06/21 11:06:46;;;;;;;3.95;1.10;;;23.30;47.50;;;;;;5059660;28;20039;-83
2022/06/21 11:09:18;;;;;;;5.22;1.15;;;23.70;47.20;;;;;;5070370;28;20137;-84
2022/06/21 11:15:01;;;;;;;3.80;1.00;;;23.50;44.90;;;;;;5070322;28;20035;-83
2022/06/21 11:17:42;;;;;;;2.35;0.70;;;23.80;46.60;;;;;;5069756;28;20020;-84
2022/06/21 11:20:43;;;;;;;4.60;1.23;;;24.30;44.50;;;;;;5049118;28;20531;-83
2022/06/21 11:23:33;;;;;;;4.38;1.10;;;23.90;45.60;;;;;;5013982;28;20036;-82
2022/06/21 11:26:21;;;;;;;6.55;1.40;;;23.50;45.50;;;;;;5052157;28;20036;-83
2022/06/21 11:28:57;;;;;;;4.35;1.17;;;23.90;45.40;;;;;;5068858;28;20024;-83
2022/06/21 11:31:45;;;;;;;4.80;1.30;;;23.90;45.80;;;;;;5065796;28;20365;-83
2022/06/21 11:34:25;;;;;;;3.33;1.00;;;23.90;45.20;;;;;;5051161;28;20024;-84
2022/06/21 11:37:15;;;;;;;6.15;1.33;;;24.10;45.00;;;;;;5066105;28;20075;-83
2022/06/21 11:39:55;;;;;;;4.45;1.30;;;24.20;44.10;;;;;;5062933;28;20033;-83
2022/06/21 11:42:47;;;;;;;3.75;1.10;;;24.00;46.70;;;;;;5069059;28;20506;-83
2022/06/21 11:45:44;;;;;;;6.35;1.20;;;24.70;44.60;;;;;;5077872;28;20033;-83
2022/06/21 11:48:43;;;;;;;5.30;1.00;;;24.60;42.40;;;;;;5050978;28;20501;-83
2022/06/21 11:51:11;;;;;;;5.50;1.25;;;24.50;43.20;;;;;;5049986;28;20380;-83
2022/06/21 11:53:55;;;;;;;4.00;1.25;;;24.40;44.40;;;;;;5065716;28;20095;-83
2022/06/21 11:56:49;;;;;;;4.25;1.13;;;24.90;44.20;;;;;;5049741;28;20498;-83
2022/06/21 11:59:39;;;;;;;3.05;1.00;;;25.00;43.50;;;;;;5047576;28;20078;-83
2022/06/21 12:02:16;;;;;;;3.10;1.17;;;25.40;43.90;;;;;;5072355;28;20060;-83
2022/06/21 12:05:16;;;;;;;2.83;0.98;;;25.10;42.10;;;;;;5062782;28;20024;-83
2022/06/21 12:07:49;;;;;;;4.88;1.23;;;25.10;42.20;;;;;;5050752;28;20037;-83
2022/06/21 12:10:19;;;;;;;3.22;1.02;;;25.50;42.50;;;;;;5062403;28;20028;-83
2022/06/21 12:13:03;;;;;;;5.32;0.95;;;26.80;40.50;;;;;;5067940;28;20403;-84
2022/06/21 12:15:41;;;;;;;6.10;1.15;;;26.20;38.70;;;;;;5063140;28;20083;-84
2022/06/21 12:18:20;;;;;;;3.75;0.77;;;26.70;38.90;;;;;;5056331;28;20130;-84
2022/06/21 12:21:03;;;;;;;5.85;1.10;;;27.10;36.80;;;;;;5063283;28;20025;-84
2022/06/21 12:23:45;;;;;;;6.72;1.05;;;27.30;36.60;;;;;;5063774;28;20042;-83
2022/06/21 12:26:18;;;;;;;4.28;1.00;;;28.00;35.60;;;;;;5070404;28;20037;-83
2022/06/21 12:28:44;;;;;;;3.05;0.85;;;27.50;35.80;;;;;;5068862;28;20036;-83
2022/06/21 12:31:20;;;;;;;4.47;1.10;;;27.60;36.60;;;;;;5050230;28;20145;-84
2022/06/21 12:33:50;;;;;;;5.82;1.20;;;27.50;38.00;;;;;;5067542;28;20036;-82
2022/06/21 12:36:27;;;;;;;4.35;1.00;;;27.60;37.20;;;;;;5053489;28;20032;-83
2022/06/21 12:39:00;;;;;;;5.32;1.20;;;27.30;40.50;;;;;;5067049;28;20031;-83
2022/06/21 12:41:38;;;;;;;3.63;0.95;;;27.90;36.30;;;;;;5065586;28;20031;-83
2022/06/21 12:44:15;;;;;;;4.13;1.00;;;29.00;37.70;;;;;;5066292;28;20020;-83
2022/06/21 12:46:58;;;;;;;4.65;1.20;;;29.00;35.80;;;;;;5048875;28;20407;-83
2022/06/21 12:49:23;;;;;;;7.18;1.20;;;28.90;35.20;;;;;;5058179;28;20129;-82
2022/06/21 12:52:17;;;;;;;6.05;1.35;;;28.10;35.50;;;;;;5070482;28;20035;-82
2022/06/21 12:55:16;;;;;;;4.43;1.30;;;27.90;36.20;;;;;;5058915;28;20025;-82
2022/06/21 12:57:48;;;;;;;6.05;1.00;;;28.40;33.80;;;;;;5053260;28;20085;-82
2022/06/21 13:00:35;;;;;;;5.18;1.00;;;28.20;35.30;;;;;;5054480;28;20033;-82
2022/06/21 13:03:31;;;;;;;4.05;0.90;;;27.90;35.60;;;;;;5054148;28;20062;-82
2022/06/21 13:06:27;;;;;;;2.30;0.70;;;28.60;35.60;;;;;;5046706;28;20029;-82
2022/06/21 13:09:00;;;;;;;6.43;0.95;;;28.30;34.60;;;;;;5069736;28;20047;-81
2022/06/21 13:11:36;;;;;;;7.10;1.20;;;28.20;34.00;;;;;;5055637;28;20028;-81
2022/06/21 13:14:28;;;;;;;5.20;0.93;;;28.30;33.40;;;;;;5073645;28;20468;-82
2022/06/21 13:16:59;;;;;;;3.97;1.08;;;28.10;33.20;;;;;;5071660;28;20024;-83
2022/06/21 13:19:42;;;;;;;2.95;0.68;;;28.50;32.80;;;;;;5067211;28;20456;-83
2022/06/21 13:22:30;;;;;;;2.80;0.68;;;29.40;32.70;;;;;;5051825;28;20475;-82
2022/06/21 13:25:12;;;;;;;2.97;0.80;;;28.50;32.30;;;;;;5070873;28;20029;-82
2022/06/21 13:28:02;;;;;;;6.30;0.93;;;28.90;31.10;;;;;;5071016;28;20478;-83
2022/06/21 13:30:34;;;;;;;;;;;28.90;31.50;;;;;;5054424;28;20090;-82
2022/06/21 13:33:28;;;;;;;3.90;0.88;;;29.60;32.60;;;;;;5064253;28;19916;-82
2022/06/21 13:36:13;;;;;;;4.85;0.90;;;29.20;32.30;;;;;;5053791;28;20067;-82
2022/06/21 13:38:47;;;;;;;4.70;0.80;;;29.20;30.50;;;;;;5044127;28;20036;-82
2022/06/21 13:44:27;;;;;;;2.63;0.80;;;29.20;32.30;;;;;;5075224;28;20104;-81
2022/06/21 13:47:31;;;;;;;4.45;1.23;;;29.00;31.30;;;;;;5043103;28;20044;-82
2022/06/21 13:50:02;;;;;;;5.53;1.00;;;29.30;33.00;;;;;;5046592;28;20033;-82
2022/06/21 13:52:30;;;;;;;4.57;0.90;;;29.50;31.40;;;;;;5051143;28;20031;-82
2022/06/21 13:55:12;;;;;;;3.25;1.10;;;30.00;31.00;;;;;;5065517;28;20020;-82
2022/06/21 13:58:09;;;;;;;6.88;0.90;;;30.00;32.00;;;;;;5065632;28;20094;-83
2022/06/21 14:00:45;;;;;;;3.17;0.80;;;29.80;32.00;;;;;;5049560;28;20028;-82